KAPY

Zapata County Airport

Zapata, Texas, USA
METAR KAPY 162135Z AUTO 23003KT 10SM CLR 21/M06 A3023 RMK AO2 T02101062
Observed Flight Rules
Dec-16 @ 21:35 UTC (28 minutes ago) Visual Flight Rules
Wind Visibility Clouds
230° at 3 knots 10 miles
  • Clear skies
Temperatures Readings
Current 21°C / 70°F
Dewpoint -6°C / 21°F
Humidity 16%
Altimeter 30.23" Hg
Pressure 1024 hPa
Elevation 129
METAR KAPY 162135Z AUTO 23003KT 10SM CLR 21/M06 A3023 RMK AO2 T02101062
Observed Flight Rules
Dec-16 @ 21:35 UTC
(28 minutes ago)
VFR
Wind Visibility
230° at 3 knots 10 miles
Clouds
  • Clear skies
Temperature Dewpoint
21°C / 70°F -6°C / 21°F
Humidity Altimeter Pressure
16% 30.23" Hg 1024 hPa